Terminal Aerodrome Forecast
Issued by NWS

Home | Current Version | Previous Version | Graphics & Text | Print | Product List | Glossary On
Versions: 1 2 3 4 5 6 7 8 9 10 11 12 13 14 15 16 17 18
509
FTUS43 KMPX 250520
TAFAXN
TAF
KAXN 250520Z 2506/2606 31011KT P6SM SCT003 OVC008
     FM250700 31010KT 3SM BR OVC003
     FM251100 33010KT 6SM BR BKN003 OVC008
     FM251500 36011KT P6SM OVC008
     FM251700 36011KT P6SM SCT008 OVC015
     FM251900 36012KT P6SM VCSH OVC020
     FM260000 36014G23KT 3SM -RA BR OVC008=

USA.gov is the U.S. government's official web portal to all federal, state and local government web resources and services.